Time;durP1;ratioP1;P1;durP2;ratioP2;P2;SDS_P1;SDS_P2;PMS_P1;PMS_P2;Temp;Humidity;BMP_temperature;BMP_pressure;BME280_temperature;BME280_humidity;BME280_pressure;Samples;Min_cycle;Max_cycle;Signal;HPM_P1;HPM_P2
2022/03/28 00:00:25;;;;;;;11.45;7.68;;;7.20;99.90;;;;;;4959881;28;20042;-55
2022/03/28 00:02:51;;;;;;;18.40;9.90;;;7.20;99.90;;;;;;4974536;28;20048;-57
2022/03/28 00:05:17;;;;;;;16.90;9.23;;;7.20;99.90;;;;;;4983031;28;20240;-57
2022/03/28 00:07:44;;;;;;;11.57;8.52;;;7.20;99.90;;;;;;4974144;28;20084;-56
2022/03/28 00:10:12;;;;;;;13.32;8.82;;;7.20;99.90;;;;;;4976731;28;20038;-57
2022/03/28 00:12:40;;;;;;;11.23;8.43;;;7.20;99.90;;;;;;4975865;28;20695;-58
2022/03/28 00:15:07;;;;;;;10.57;7.43;;;7.20;99.90;;;;;;4972804;28;20054;-57
2022/03/28 00:17:33;;;;;;;14.25;8.93;;;7.20;99.90;;;;;;4987828;28;20125;-58
2022/03/28 00:20:04;;;;;;;14.27;10.05;;;7.30;99.90;;;;;;4961702;28;20041;-56
2022/03/28 00:22:29;;;;;;;13.13;8.45;;;7.20;99.90;;;;;;4998913;28;20061;-57
2022/03/28 00:24:55;;;;;;;13.00;8.18;;;7.30;99.90;;;;;;4981077;28;20041;-57
2022/03/28 00:27:21;;;;;;;15.32;9.50;;;7.30;99.90;;;;;;5003881;28;20045;-57
2022/03/28 00:29:47;;;;;;;13.18;8.95;;;7.30;99.90;;;;;;4989440;28;20052;-57
2022/03/28 00:32:12;;;;;;;14.95;9.65;;;7.20;99.90;;;;;;4980686;28;20479;-56
2022/03/28 00:34:39;;;;;;;17.90;10.25;;;7.30;99.90;;;;;;4998556;28;20096;-56
2022/03/28 00:37:06;;;;;;;15.57;9.02;;;7.20;99.90;;;;;;4995064;28;20057;-57
2022/03/28 00:39:31;;;;;;;16.05;9.85;;;7.20;99.90;;;;;;4997369;28;20037;-57
2022/03/28 00:41:57;;;;;;;11.38;8.30;;;7.20;99.90;;;;;;4996587;28;20038;-57
2022/03/28 00:44:23;;;;;;;14.63;8.65;;;7.20;99.90;;;;;;4997404;28;20135;-56
2022/03/28 00:46:49;;;;;;;11.88;8.52;;;7.20;99.90;;;;;;4987961;28;20049;-55
2022/03/28 00:49:16;;;;;;;17.27;10.25;;;7.20;99.90;;;;;;4990279;28;20727;-57
2022/03/28 00:51:42;;;;;;;14.25;8.75;;;7.30;99.90;;;;;;4984208;28;20057;-57
2022/03/28 00:54:09;;;;;;;14.88;7.90;;;7.20;99.90;;;;;;4980136;28;20125;-57
2022/03/28 00:56:36;;;;;;;14.93;9.05;;;7.20;99.90;;;;;;4994457;28;20042;-57
2022/03/28 00:59:04;;;;;;;16.98;9.32;;;7.10;99.90;;;;;;4995566;28;21845;-56
2022/03/28 01:01:30;;;;;;;13.55;8.60;;;7.10;99.90;;;;;;4982661;28;20049;-55
2022/03/28 01:03:56;;;;;;;13.80;8.57;;;7.10;99.90;;;;;;4981203;28;20108;-57
2022/03/28 01:06:23;;;;;;;16.67;9.88;;;7.10;99.90;;;;;;4980400;28;20041;-56
2022/03/28 01:08:49;;;;;;;12.32;8.13;;;7.10;99.90;;;;;;4998629;28;20045;-55
2022/03/28 01:11:16;;;;;;;14.10;10.52;;;7.10;99.90;;;;;;4998024;28;20049;-56
2022/03/28 01:13:42;;;;;;;20.42;9.35;;;7.10;99.90;;;;;;4965464;28;20396;-55
2022/03/28 01:16:09;;;;;;;16.48;9.95;;;7.10;99.90;;;;;;4975676;28;20078;-55
2022/03/28 01:18:35;;;;;;;12.60;9.18;;;7.10;99.90;;;;;;4968610;28;20049;-55
2022/03/28 01:21:03;;;;;;;12.77;8.85;;;7.10;99.90;;;;;;4972899;28;20042;-55
2022/03/28 01:23:28;;;;;;;13.30;9.10;;;7.00;99.90;;;;;;4942363;28;20046;-55
2022/03/28 01:25:56;;;;;;;13.20;9.40;;;7.00;99.90;;;;;;4969613;28;20131;-55
2022/03/28 01:28:24;;;;;;;10.73;7.68;;;7.00;99.90;;;;;;4985541;28;20053;-57
2022/03/28 01:30:50;;;;;;;14.50;9.05;;;7.00;99.90;;;;;;4998183;28;20033;-56
2022/03/28 01:33:16;;;;;;;10.50;8.15;;;7.00;99.90;;;;;;4996985;28;20053;-56
2022/03/28 01:35:44;;;;;;;13.77;8.00;;;6.90;99.90;;;;;;4993579;28;20041;-55
2022/03/28 01:38:15;;;;;;;12.15;8.90;;;6.90;99.90;;;;;;4999868;28;20367;-55
2022/03/28 01:40:50;;;;;;;13.27;9.65;;;6.80;99.90;;;;;;5003539;28;20383;-57
2022/03/28 01:43:17;;;;;;;10.05;7.85;;;6.90;99.90;;;;;;4998914;28;20046;-54
2022/03/28 01:45:43;;;;;;;13.73;8.20;;;6.80;99.90;;;;;;4979502;28;20084;-56
2022/03/28 01:48:10;;;;;;;13.85;8.80;;;6.90;99.90;;;;;;4996525;28;20621;-56
2022/03/28 01:50:37;;;;;;;15.63;9.70;;;6.90;99.90;;;;;;4975342;28;20519;-54
2022/03/28 01:53:03;;;;;;;12.02;8.30;;;6.80;99.90;;;;;;4999673;28;20146;-56
2022/03/28 01:55:29;;;;;;;13.15;9.73;;;6.80;99.90;;;;;;4997232;28;20096;-55
2022/03/28 01:57:55;;;;;;;16.55;9.93;;;6.80;99.90;;;;;;4995555;28;20042;-56
2022/03/28 02:00:23;;;;;;;15.10;9.93;;;6.80;99.90;;;;;;4998046;28;20045;-55
2022/03/28 02:02:50;;;;;;;14.00;9.05;;;6.80;99.90;;;;;;4991443;28;20049;-56
2022/03/28 02:05:16;;;;;;;14.15;9.75;;;6.80;99.90;;;;;;4998618;28;20038;-56
2022/03/28 02:07:46;;;;;;;18.50;9.93;;;6.80;99.90;;;;;;4993378;28;20127;-54
2022/03/28 02:10:15;;;;;;;14.27;10.18;;;6.80;99.90;;;;;;4994318;28;20046;-56
2022/03/28 02:12:42;;;;;;;13.60;9.35;;;6.80;99.90;;;;;;4980618;28;20121;-57
2022/03/28 02:15:10;;;;;;;14.82;11.15;;;6.90;99.90;;;;;;4992890;28;20180;-56
2022/03/28 02:17:37;;;;;;;15.60;9.57;;;6.80;99.90;;;;;;4991114;28;20498;-56
2022/03/28 02:20:05;;;;;;;14.27;9.73;;;6.90;99.90;;;;;;4988838;28;20105;-55
2022/03/28 02:22:32;;;;;;;11.45;8.32;;;6.90;99.90;;;;;;4992040;28;20233;-56
2022/03/28 02:24:58;;;;;;;12.13;8.70;;;6.90;99.90;;;;;;4988192;28;20120;-57
2022/03/28 02:27:24;;;;;;;12.10;7.93;;;6.90;99.90;;;;;;4989844;28;20634;-56
2022/03/28 02:29:50;;;;;;;13.05;8.90;;;6.90;99.90;;;;;;4984451;28;20088;-57
2022/03/28 02:32:16;;;;;;;18.00;8.95;;;6.90;99.90;;;;;;4978507;28;20042;-54
2022/03/28 02:34:41;;;;;;;12.82;8.77;;;7.00;99.90;;;;;;5002083;28;20045;-54
2022/03/28 02:37:07;;;;;;;12.38;7.78;;;6.90;99.90;;;;;;4994385;28;20053;-56
2022/03/28 02:39:33;;;;;;;11.40;7.88;;;6.90;99.90;;;;;;4984611;28;20045;-57
2022/03/28 02:41:59;;;;;;;9.05;6.15;;;6.80;99.90;;;;;;4988216;28;20537;-56
2022/03/28 02:44:25;;;;;;;9.23;7.20;;;6.80;99.90;;;;;;4968633;28;20060;-56
2022/03/28 02:46:50;;;;;;;15.35;7.85;;;6.80;99.90;;;;;;4967787;28;20085;-55
2022/03/28 02:49:18;;;;;;;10.48;7.47;;;6.80;99.90;;;;;;4971140;28;20041;-57
2022/03/28 02:51:44;;;;;;;7.95;5.93;;;6.90;99.90;;;;;;4970265;28;20176;-57
2022/03/28 02:54:10;;;;;;;10.13;7.20;;;6.90;99.90;;;;;;4975773;28;20477;-57
2022/03/28 02:56:36;;;;;;;14.77;7.47;;;6.90;99.90;;;;;;4956671;28;20038;-56
2022/03/28 02:59:02;;;;;;;10.82;7.60;;;7.00;99.90;;;;;;4970408;28;20568;-56
2022/03/28 03:01:28;;;;;;;11.18;7.53;;;6.90;99.90;;;;;;4983171;23;20050;-63
2022/03/28 03:03:53;;;;;;;10.93;7.72;;;6.90;99.90;;;;;;4949517;28;20068;-63
2022/03/28 03:06:19;;;;;;;16.80;9.15;;;6.90;99.90;;;;;;4954880;28;20046;-63
2022/03/28 03:08:45;;;;;;;11.10;7.38;;;6.90;99.90;;;;;;4947061;28;20107;-63
2022/03/28 03:11:11;;;;;;;9.70;4.80;;;6.90;99.90;;;;;;4949776;28;20042;-63
2022/03/28 03:13:37;;;;;;;7.78;5.03;;;6.90;99.90;;;;;;4980227;28;20592;-63
2022/03/28 03:16:04;;;;;;;8.07;5.50;;;6.90;99.90;;;;;;4969874;28;20101;-63
2022/03/28 03:18:30;;;;;;;8.95;5.47;;;6.80;99.90;;;;;;4947499;28;20058;-63
2022/03/28 03:20:58;;;;;;;8.68;5.63;;;6.80;99.90;;;;;;4960199;28;20482;-64
2022/03/28 03:23:24;;;;;;;7.25;5.72;;;6.80;99.90;;;;;;4976312;28;20045;-65
2022/03/28 03:25:50;;;;;;;11.30;6.85;;;6.80;99.90;;;;;;4993123;28;20049;-63
2022/03/28 03:28:16;;;;;;;11.77;7.05;;;6.80;99.90;;;;;;4996907;28;20054;-63
2022/03/28 03:30:43;;;;;;;10.52;7.68;;;6.80;99.90;;;;;;4982201;28;20050;-64
2022/03/28 03:33:09;;;;;;;8.75;6.22;;;6.70;99.90;;;;;;4977880;28;20045;-63
2022/03/28 03:35:35;;;;;;;11.27;7.38;;;6.80;99.90;;;;;;4995504;28;20545;-63
2022/03/28 03:38:03;;;;;;;9.50;6.13;;;6.70;99.90;;;;;;4982956;28;20054;-64
2022/03/28 03:40:28;;;;;;;8.35;4.32;;;6.60;99.90;;;;;;4977181;28;20049;-63
2022/03/28 03:42:55;;;;;;;6.43;4.35;;;6.60;99.90;;;;;;4981132;28;20296;-63
2022/03/28 03:45:21;;;;;;;6.20;4.28;;;6.60;99.90;;;;;;4984751;28;20405;-64
2022/03/28 03:47:46;;;;;;;5.30;3.90;;;6.60;99.90;;;;;;4996894;28;20050;-63
2022/03/28 03:50:13;;;;;;;7.20;4.40;;;6.60;99.90;;;;;;4980790;28;20056;-64
2022/03/28 03:52:39;;;;;;;11.77;5.80;;;6.60;99.90;;;;;;4977016;28;20674;-64
2022/03/28 03:55:06;;;;;;;12.52;5.80;;;6.60;99.90;;;;;;4983021;28;20065;-64
2022/03/28 03:57:33;;;;;;;12.18;6.15;;;6.50;99.90;;;;;;4994607;28;20076;-64
2022/03/28 03:59:59;;;;;;;14.73;6.38;;;6.50;99.90;;;;;;4998558;28;20188;-64
2022/03/28 04:02:25;;;;;;;8.27;5.22;;;6.50;99.90;;;;;;4954557;28;20034;-64
2022/03/28 04:04:51;;;;;;;16.38;6.50;;;6.40;99.90;;;;;;4972625;28;20556;-64
2022/03/28 04:07:17;;;;;;;10.85;5.75;;;6.40;99.90;;;;;;4978916;28;20524;-64
2022/03/28 04:09:43;;;;;;;19.08;6.50;;;6.50;99.90;;;;;;4992795;28;20084;-64
2022/03/28 04:12:09;;;;;;;9.40;5.32;;;6.40;99.90;;;;;;4998501;28;20049;-64
2022/03/28 04:14:36;;;;;;;11.07;6.53;;;6.40;99.90;;;;;;4998227;28;20045;-64
2022/03/28 04:17:01;;;;;;;15.20;6.35;;;6.50;99.90;;;;;;5006840;28;20548;-64
2022/03/28 04:19:27;;;;;;;16.85;6.35;;;6.40;99.90;;;;;;4989958;28;20030;-64
2022/03/28 04:21:53;;;;;;;8.48;5.32;;;6.50;99.90;;;;;;4990952;28;20038;-64
2022/03/28 04:24:20;;;;;;;8.98;5.80;;;6.40;99.90;;;;;;4997670;28;20105;-64
2022/03/28 04:26:46;;;;;;;10.77;6.63;;;6.40;99.90;;;;;;5001177;28;20470;-63
2022/03/28 04:29:12;;;;;;;15.30;7.75;;;6.50;99.90;;;;;;4998010;28;20038;-64
2022/03/28 04:31:40;;;;;;;12.90;7.78;;;6.40;99.90;;;;;;4979734;28;20053;-63
2022/03/28 04:34:07;;;;;;;18.40;12.48;;;6.40;99.90;;;;;;4991753;28;20075;-64
2022/03/28 04:36:34;;;;;;;20.63;7.47;;;6.40;99.90;;;;;;5000280;28;20853;-64
2022/03/28 04:39:00;;;;;;;11.10;6.47;;;6.40;99.90;;;;;;4990698;28;20593;-64
2022/03/28 04:41:26;;;;;;;13.93;6.82;;;6.40;99.90;;;;;;4970720;28;20045;-65
2022/03/28 04:43:52;;;;;;;7.80;5.13;;;6.40;99.90;;;;;;4985349;28;20042;-64
2022/03/28 04:46:18;;;;;;;9.10;5.45;;;6.40;99.90;;;;;;4991026;28;20097;-64
2022/03/28 04:48:44;;;;;;;12.13;5.50;;;6.40;99.90;;;;;;4996909;28;20038;-64
2022/03/28 04:51:09;;;;;;;17.23;6.40;;;6.30;99.90;;;;;;4980339;28;20064;-64
2022/03/28 04:53:35;;;;;;;9.38;5.35;;;6.30;99.90;;;;;;5016680;28;20191;-64
2022/03/28 04:56:01;;;;;;;8.77;5.20;;;6.20;99.90;;;;;;4993127;28;20107;-64
2022/03/28 04:58:27;;;;;;;7.88;4.53;;;6.20;99.90;;;;;;4979405;28;20042;-64
2022/03/28 05:00:52;;;;;;;8.82;5.60;;;6.20;99.90;;;;;;4992952;28;20046;-64
2022/03/28 05:03:19;;;;;;;7.65;5.43;;;6.30;99.90;;;;;;4991397;28;20124;-63
2022/03/28 05:05:45;;;;;;;8.23;4.90;;;6.30;99.90;;;;;;4973337;28;20050;-63
2022/03/28 05:08:11;;;;;;;8.15;4.47;;;6.30;99.90;;;;;;4991371;28;20042;-64
2022/03/28 05:10:37;;;;;;;10.35;5.70;;;6.40;99.90;;;;;;4991194;28;20494;-64
2022/03/28 05:13:02;;;;;;;16.30;6.25;;;6.40;99.90;;;;;;4993097;28;20520;-63
2022/03/28 05:15:28;;;;;;;12.65;6.90;;;6.40;99.90;;;;;;4981488;28;20565;-65
2022/03/28 05:17:54;;;;;;;10.43;5.70;;;6.40;99.90;;;;;;5000058;28;20041;-64
2022/03/28 05:20:20;;;;;;;8.50;6.18;;;6.40;99.90;;;;;;4992118;28;20030;-64
2022/03/28 05:22:46;;;;;;;9.45;6.82;;;6.40;99.90;;;;;;4984294;28;20049;-64
2022/03/28 05:25:12;;;;;;;11.65;6.13;;;6.30;99.90;;;;;;4999962;28;20053;-63
2022/03/28 05:27:45;;;;;;;9.18;6.05;;;6.30;99.90;;;;;;4995843;28;20048;-63
2022/03/28 05:30:12;;;;;;;14.27;7.15;;;6.30;99.90;;;;;;4969540;28;20478;-64
2022/03/28 05:32:38;;;;;;;11.32;6.35;;;6.30;99.90;;;;;;4983510;28;20385;-64
2022/03/28 05:35:06;;;;;;;9.38;6.28;;;6.20;99.90;;;;;;4970136;28;20561;-63
2022/03/28 05:37:32;;;;;;;10.50;6.75;;;6.20;99.90;;;;;;4995556;28;20100;-64
2022/03/28 05:39:59;;;;;;;8.23;6.15;;;6.20;99.90;;;;;;4991641;28;20037;-63
2022/03/28 05:42:24;;;;;;;10.90;6.30;;;6.20;99.90;;;;;;4996167;28;20613;-64
2022/03/28 05:44:50;;;;;;;8.77;5.60;;;6.20;99.90;;;;;;4999970;28;20124;-63
2022/03/28 05:47:16;;;;;;;9.70;5.70;;;6.30;99.90;;;;;;4997717;28;20045;-63
2022/03/28 05:49:42;;;;;;;10.90;6.45;;;6.30;99.90;;;;;;5001668;28;20557;-64
2022/03/28 05:52:07;;;;;;;8.82;5.88;;;6.30;99.90;;;;;;5007536;28;20071;-64
2022/03/28 05:54:33;;;;;;;10.07;5.72;;;6.20;99.90;;;;;;5009280;28;20052;-64
2022/03/28 05:56:59;;;;;;;16.65;7.22;;;6.20;99.90;;;;;;5001800;28;20045;-64
2022/03/28 05:59:25;;;;;;;11.70;6.53;;;6.20;99.90;;;;;;5003855;28;20037;-64
2022/03/28 06:01:51;;;;;;;10.23;6.22;;;6.20;99.90;;;;;;5010637;28;20052;-64
2022/03/28 06:04:18;;;;;;;11.15;5.47;;;6.20;99.90;;;;;;4988517;28;20108;-64
2022/03/28 06:06:44;;;;;;;14.52;6.22;;;6.30;99.90;;;;;;4983747;28;20274;-64
2022/03/28 06:09:10;;;;;;;15.30;5.78;;;6.30;99.90;;;;;;5000399;28;20048;-64
2022/03/28 06:11:36;;;;;;;15.65;7.00;;;6.20;99.90;;;;;;4987683;28;20069;-64
2022/03/28 06:14:03;;;;;;;13.68;6.35;;;6.20;99.90;;;;;;4995330;28;20056;-64
2022/03/28 06:16:30;;;;;;;9.48;5.63;;;6.20;99.90;;;;;;5008677;28;20041;-64
2022/03/28 06:18:55;;;;;;;7.63;4.57;;;6.20;99.90;;;;;;5003650;28;22031;-64
2022/03/28 06:21:21;;;;;;;7.80;4.72;;;6.20;99.90;;;;;;5010382;28;20037;-63
2022/03/28 06:23:47;;;;;;;9.15;4.85;;;6.20;99.90;;;;;;5009594;28;20038;-63
2022/03/28 06:26:13;;;;;;;6.93;3.88;;;6.20;99.90;;;;;;5014225;28;20613;-63
2022/03/28 06:28:40;;;;;;;7.22;4.53;;;6.20;99.90;;;;;;5013896;28;20112;-63
2022/03/28 06:31:06;;;;;;;6.63;4.00;;;6.20;99.90;;;;;;5012610;28;20481;-63
2022/03/28 06:33:32;;;;;;;7.50;4.53;;;6.20;99.90;;;;;;5008959;28;20064;-64
2022/03/28 06:35:58;;;;;;;8.25;4.13;;;6.10;99.90;;;;;;5010968;28;20026;-64
2022/03/28 06:38:24;;;;;;;6.53;3.85;;;6.10;99.90;;;;;;5010625;28;20552;-64
2022/03/28 06:40:50;;;;;;;7.18;4.15;;;6.20;99.90;;;;;;5006244;28;20033;-64
2022/03/28 06:43:15;;;;;;;7.55;3.92;;;6.20;99.90;;;;;;5003900;28;20173;-63
2022/03/28 06:45:41;;;;;;;6.85;3.75;;;6.20;99.90;;;;;;5031496;28;20493;-63
2022/03/28 06:48:07;;;;;;;7.18;3.95;;;6.30;99.90;;;;;;5009100;28;20066;-63
2022/03/28 06:50:36;;;;;;;8.07;4.35;;;6.20;99.90;;;;;;4988267;28;20091;-64
2022/03/28 06:53:02;;;;;;;7.30;3.92;;;6.30;99.90;;;;;;4981105;28;20063;-62
2022/03/28 06:55:28;;;;;;;6.05;3.42;;;6.30;99.90;;;;;;4984494;28;20410;-64
2022/03/28 06:57:54;;;;;;;6.38;3.35;;;6.30;99.90;;;;;;5010589;28;20046;-64
2022/03/28 07:00:20;;;;;;;5.40;2.90;;;6.30;99.90;;;;;;4976845;28;20038;-64
2022/03/28 07:02:46;;;;;;;5.65;2.75;;;6.40;99.90;;;;;;5014884;28;20037;-64
2022/03/28 07:05:12;;;;;;;5.15;3.25;;;6.40;99.90;;;;;;5005390;28;20103;-63
2022/03/28 07:07:46;;;;;;;6.85;4.10;;;6.40;99.90;;;;;;4993348;28;20053;-62
2022/03/28 07:10:14;;;;;;;6.57;3.80;;;6.40;99.90;;;;;;4971804;28;20646;-64
2022/03/28 07:12:40;;;;;;;7.07;3.60;;;6.40;99.90;;;;;;4999235;28;20137;-63
2022/03/28 07:15:09;;;;;;;7.43;4.00;;;6.40;99.90;;;;;;4994663;28;20532;-64
2022/03/28 07:17:54;;;;;;;10.27;4.43;;;6.40;99.90;;;;;;5005602;28;20063;-64
2022/03/28 07:20:23;;;;;;;;;;;6.40;99.90;;;;;;5008278;28;20532;-64
2022/03/28 07:22:50;;;;;;;6.10;3.78;;;6.40;99.90;;;;;;5006909;28;19924;-64
2022/03/28 07:25:15;;;;;;;7.85;4.78;;;6.40;99.90;;;;;;5013877;28;20033;-64
2022/03/28 07:27:50;;;;;;;8.57;4.38;;;6.50;99.90;;;;;;5008354;28;20133;-66
2022/03/28 07:30:19;;;;;;;8.85;4.95;;;6.50;99.90;;;;;;5007433;28;20048;-65
2022/03/28 07:32:46;;;;;;;9.75;5.72;;;6.50;99.90;;;;;;5013695;28;20045;-65
2022/03/28 07:35:14;;;;;;;9.40;6.07;;;6.40;99.90;;;;;;5009676;28;20053;-65
2022/03/28 07:37:41;;;;;;;10.50;7.50;;;6.40;99.90;;;;;;5002848;28;20056;-65
2022/03/28 07:40:09;;;;;;;7.53;4.93;;;6.40;99.90;;;;;;5009607;28;20409;-67
2022/03/28 07:42:35;;;;;;;8.93;5.47;;;6.40;99.90;;;;;;5006042;28;20124;-65
2022/03/28 07:45:03;;;;;;;13.25;8.90;;;6.50;99.90;;;;;;5009716;28;20490;-65
2022/03/28 07:47:29;;;;;;;14.10;10.73;;;6.50;99.90;;;;;;5022754;28;20041;-65
2022/03/28 07:49:55;;;;;;;18.65;10.32;;;6.50;99.90;;;;;;5008169;28;20493;-64
2022/03/28 07:52:22;;;;;;;14.40;9.13;;;6.50;99.90;;;;;;5006876;28;20041;-64
2022/03/28 07:54:49;;;;;;;13.02;9.50;;;6.50;99.90;;;;;;4996256;28;20134;-67
2022/03/28 07:57:19;;;;;;;14.68;10.18;;;6.60;99.90;;;;;;5017865;28;20069;-65
2022/03/28 07:59:47;;;;;;;14.07;9.65;;;6.60;99.90;;;;;;5013060;28;20521;-64
2022/03/28 08:02:14;;;;;;;12.07;9.00;;;6.70;99.90;;;;;;5008261;28;20099;-62
2022/03/28 08:04:40;;;;;;;11.77;8.43;;;6.70;99.90;;;;;;5022337;28;20046;-63
2022/03/28 08:07:08;;;;;;;13.70;10.18;;;6.80;99.90;;;;;;5011796;28;20038;-63
2022/03/28 08:09:38;;;;;;;13.82;11.00;;;6.80;99.90;;;;;;5006312;28;20463;-67
2022/03/28 08:12:05;;;;;;;16.92;10.23;;;6.80;99.90;;;;;;4983287;28;20137;-63
2022/03/28 08:14:32;;;;;;;13.13;9.13;;;6.80;99.90;;;;;;5009965;28;20077;-64
2022/03/28 08:16:58;;;;;;;13.18;10.13;;;6.80;99.90;;;;;;5009406;28;20061;-64
2022/03/28 08:19:24;;;;;;;13.88;10.50;;;6.80;99.90;;;;;;5013932;28;20061;-63
2022/03/28 08:21:50;;;;;;;14.15;10.38;;;6.80;99.90;;;;;;5005928;28;20037;-67
2022/03/28 08:24:16;;;;;;;13.50;10.38;;;6.80;99.90;;;;;;5016399;28;20041;-65
2022/03/28 08:26:42;;;;;;;13.23;9.80;;;6.70;99.90;;;;;;5002143;28;20092;-64
2022/03/28 08:29:08;;;;;;;14.27;10.18;;;6.70;99.90;;;;;;4995277;28;20042;-66
2022/03/28 08:31:34;;;;;;;18.48;10.73;;;6.80;99.90;;;;;;4998183;28;20038;-65
2022/03/28 08:33:59;;;;;;;15.63;11.98;;;6.80;99.90;;;;;;5000634;28;20036;-65
2022/03/28 08:36:26;;;;;;;13.00;9.98;;;6.80;99.90;;;;;;5006107;28;20057;-70
2022/03/28 08:38:52;;;;;;;16.33;10.60;;;6.80;99.90;;;;;;4985252;28;20222;-68
2022/03/28 08:41:19;;;;;;;14.90;10.50;;;6.80;99.90;;;;;;4997012;28;20208;-65
2022/03/28 08:43:45;;;;;;;12.32;9.65;;;6.80;99.90;;;;;;4997300;28;20126;-64
2022/03/28 08:46:15;;;;;;;15.60;11.15;;;6.80;99.90;;;;;;4999528;28;20034;-64
2022/03/28 08:48:42;;;;;;;13.35;9.60;;;6.90;99.90;;;;;;4998141;28;20038;-64
2022/03/28 08:51:09;;;;;;;15.68;11.27;;;6.90;99.90;;;;;;4999508;28;20050;-68
2022/03/28 08:53:36;;;;;;;13.23;10.13;;;6.90;99.90;;;;;;5003528;28;20493;-65
2022/03/28 08:56:03;;;;;;;17.55;10.68;;;6.90;99.90;;;;;;5004178;28;20038;-64
2022/03/28 08:58:29;;;;;;;17.48;11.35;;;7.00;99.90;;;;;;5000244;28;20396;-64
2022/03/28 09:00:54;;;;;;;12.43;9.68;;;7.10;99.90;;;;;;5000666;28;20480;-64
2022/03/28 09:03:34;;;;;;;14.75;10.68;;;7.10;99.90;;;;;;5000489;28;20284;-65
2022/03/28 09:05:59;;;;;;;13.48;10.15;;;7.20;99.90;;;;;;5003834;28;20240;-65
2022/03/28 09:08:25;;;;;;;13.43;10.70;;;7.30;99.90;;;;;;4999457;28;20751;-64
2022/03/28 09:10:51;;;;;;;15.35;11.05;;;7.30;99.90;;;;;;4996771;28;20042;-64
2022/03/28 09:13:17;;;;;;;15.80;10.20;;;7.30;99.90;;;;;;5003674;28;20033;-64
2022/03/28 09:15:56;;;;;;;12.32;10.00;;;7.30;99.90;;;;;;4999279;28;20034;-64
2022/03/28 09:18:29;;;;;;;14.18;11.32;;;7.30;99.90;;;;;;4998070;28;20050;-66
2022/03/28 09:20:59;;;;;;;14.43;10.75;;;7.30;99.90;;;;;;4998589;28;20037;-64
2022/03/28 09:23:41;;;;;;;13.75;9.98;;;7.30;99.90;;;;;;4994858;28;20041;-64
2022/03/28 09:26:08;;;;;;;15.10;10.70;;;7.40;99.90;;;;;;5004397;28;20054;-69
2022/03/28 09:28:48;;;;;;;23.23;15.00;;;7.50;99.90;;;;;;4999445;28;20065;-64
2022/03/28 09:31:17;;;;;;;18.70;12.07;;;7.50;99.90;;;;;;5000270;28;20092;-64
2022/03/28 09:34:04;;;;;;;31.83;17.98;;;7.50;99.90;;;;;;4998569;28;20042;-64
2022/03/28 09:36:34;;;;;;;17.67;11.98;;;7.70;99.90;;;;;;4994208;28;20398;-65
2022/03/28 09:39:00;;;;;;;24.13;15.73;;;7.70;99.90;;;;;;4975713;28;20559;-64
2022/03/28 09:41:30;;;;;;;16.20;12.38;;;7.80;99.90;;;;;;4998680;28;20044;-65
2022/03/28 09:43:56;;;;;;;15.95;10.60;;;7.70;99.90;;;;;;4997611;28;20123;-63
2022/03/28 09:46:30;;;;;;;20.40;12.30;;;7.80;99.90;;;;;;4998514;28;20042;-69
2022/03/28 09:48:59;;;;;;;14.10;9.60;;;7.80;99.90;;;;;;4995337;28;20069;-64
2022/03/28 09:51:27;;;;;;;12.57;10.30;;;7.60;99.90;;;;;;4990900;28;20041;-65
2022/03/28 09:53:54;;;;;;;12.45;9.90;;;8.00;99.90;;;;;;4994121;28;20041;-64
2022/03/28 09:56:21;;;;;;;14.45;11.13;;;8.10;99.90;;;;;;4991795;28;20118;-64
2022/03/28 09:58:59;;;;;;;16.33;10.52;;;8.10;99.90;;;;;;4994482;28;20038;-66
2022/03/28 10:01:39;;;;;;;12.25;9.35;;;8.20;99.90;;;;;;4996747;28;20513;-65
2022/03/28 10:04:10;;;;;;;13.50;11.20;;;8.20;99.90;;;;;;4996004;28;20041;-64
2022/03/28 10:06:37;;;;;;;15.63;11.38;;;8.20;99.90;;;;;;4996689;28;20306;-67
2022/03/28 10:09:07;;;;;;;13.48;9.77;;;8.30;99.90;;;;;;4999652;28;20525;-65
2022/03/28 10:11:34;;;;;;;14.82;9.90;;;8.30;99.90;;;;;;4995662;28;20034;-63
2022/03/28 10:14:00;;;;;;;10.38;9.07;;;8.40;99.90;;;;;;5000193;28;20215;-65
2022/03/28 10:16:26;;;;;;;15.40;10.50;;;8.50;99.90;;;;;;4993579;28;20071;-65
2022/03/28 10:18:52;;;;;;;12.02;9.38;;;8.50;99.90;;;;;;4996118;28;20041;-65
2022/03/28 10:21:22;;;;;;;14.30;9.10;;;8.70;99.90;;;;;;4997723;28;20262;-67
2022/03/28 10:23:56;;;;;;;13.93;8.68;;;8.90;99.90;;;;;;5003661;28;20049;-65
2022/03/28 10:26:30;;;;;;;16.27;11.10;;;9.00;99.90;;;;;;4993455;28;20056;-65
2022/03/28 10:29:07;;;;;;;16.35;9.48;;;9.00;99.90;;;;;;4994616;28;20324;-65
2022/03/28 10:31:34;;;;;;;12.73;9.20;;;9.00;99.90;;;;;;4985518;28;20104;-63
2022/03/28 10:34:02;;;;;;;11.65;8.90;;;9.00;99.90;;;;;;4958629;28;20193;-64
2022/03/28 10:36:34;;;;;;;10.90;8.07;;;8.90;99.90;;;;;;4993948;28;21660;-63
2022/03/28 10:39:31;;;;;;;10.80;8.80;;;9.00;99.90;;;;;;4997949;28;20045;-64
2022/03/28 10:42:05;;;;;;;12.52;9.00;;;9.10;99.90;;;;;;5000501;28;20041;-64
2022/03/28 10:45:03;;;;;;;16.67;10.00;;;9.10;99.90;;;;;;5014654;28;20037;-63
2022/03/28 10:47:50;;;;;;;13.20;9.48;;;9.20;99.90;;;;;;4991805;28;20110;-63
2022/03/28 10:50:24;;;;;;;14.15;9.30;;;9.10;99.90;;;;;;4991241;28;20524;-64
2022/03/28 10:53:09;;;;;;;11.27;8.23;;;9.10;99.90;;;;;;4999259;28;20077;-65
2022/03/28 10:55:41;;;;;;;11.60;9.30;;;9.30;99.90;;;;;;5001250;28;20497;-63
2022/03/28 10:58:28;;;;;;;9.95;8.32;;;9.40;99.90;;;;;;4997318;28;20053;-64
2022/03/28 11:01:12;;;;;;;10.32;8.55;;;9.30;99.90;;;;;;5003671;28;20136;-65
2022/03/28 11:03:59;;;;;;;12.30;8.95;;;9.40;99.90;;;;;;4996137;28;20730;-65
2022/03/28 11:07:01;;;;;;;12.10;9.45;;;9.40;99.90;;;;;;4997455;28;20129;-66
2022/03/28 11:09:45;;;;;;;14.23;8.70;;;9.50;99.90;;;;;;4998951;28;20614;-64
2022/03/28 11:12:29;;;;;;;11.05;8.48;;;9.60;99.90;;;;;;4997038;28;20551;-65
2022/03/28 11:14:58;;;;;;;11.77;9.43;;;9.60;99.90;;;;;;4977863;28;20041;-65
2022/03/28 11:17:28;;;;;;;11.95;8.90;;;9.60;99.90;;;;;;4999095;28;20041;-64
2022/03/28 11:20:04;;;;;;;12.45;9.18;;;9.60;99.90;;;;;;4997927;28;20045;-66
2022/03/28 11:22:49;;;;;;;13.13;9.77;;;9.70;99.90;;;;;;4992639;28;20124;-64
2022/03/28 11:25:31;;;;;;;19.52;11.65;;;9.80;99.90;;;;;;5004772;28;20164;-63
2022/03/28 11:28:12;;;;;;;13.15;9.75;;;9.80;99.90;;;;;;5001460;28;20049;-63
2022/03/28 11:30:55;;;;;;;11.70;9.82;;;9.80;99.90;;;;;;5003667;28;20510;-64
2022/03/28 11:33:26;;;;;;;11.68;9.50;;;9.90;99.90;;;;;;5001917;28;20042;-67
2022/03/28 11:36:07;;;;;;;13.30;10.75;;;10.00;99.90;;;;;;5000666;28;20037;-64
2022/03/28 11:38:37;;;;;;;13.38;9.85;;;10.00;99.90;;;;;;4994603;28;20060;-64
2022/03/28 11:41:04;;;;;;;12.30;9.50;;;10.00;99.90;;;;;;5003201;28;20516;-64
2022/03/28 11:43:41;;;;;;;14.10;10.18;;;10.00;99.90;;;;;;4979811;28;20570;-67
2022/03/28 11:46:18;;;;;;;11.57;8.82;;;10.10;99.90;;;;;;5003290;28;20057;-64
2022/03/28 11:48:54;;;;;;;12.02;10.20;;;10.20;99.90;;;;;;5000429;28;20038;-64
2022/03/28 11:51:21;;;;;;;13.88;9.63;;;10.40;99.90;;;;;;5011329;28;20447;-67
2022/03/28 11:53:54;;;;;;;13.03;10.57;;;10.50;99.90;;;;;;5004197;28;20041;-64
2022/03/28 11:56:29;;;;;;;12.70;10.25;;;10.50;99.90;;;;;;5002766;28;20530;-64
2022/03/28 11:59:08;;;;;;;12.70;11.10;;;10.50;99.90;;;;;;5002124;28;20030;-62
2022/03/28 12:01:36;;;;;;;11.10;9.38;;;10.70;99.90;;;;;;5002475;28;20050;-66
2022/03/28 12:04:02;;;;;;;14.05;10.23;;;10.90;99.90;;;;;;5005550;28;20038;-64
2022/03/28 12:06:34;;;;;;;15.55;10.73;;;11.20;99.90;;;;;;5002100;28;20030;-63
2022/03/28 12:09:01;;;;;;;13.68;11.90;;;11.40;99.90;;;;;;5002781;28;20394;-64
2022/03/28 12:11:27;;;;;;;12.38;9.85;;;11.60;99.90;;;;;;4998557;28;20518;-63
2022/03/28 12:13:54;;;;;;;11.32;10.13;;;11.70;99.90;;;;;;5008342;28;20430;-66
2022/03/28 12:16:21;;;;;;;10.88;9.18;;;11.80;99.90;;;;;;5002691;28;20506;-63
2022/03/28 12:18:48;;;;;;;13.02;10.60;;;11.80;99.90;;;;;;5005456;28;20046;-63
2022/03/28 12:21:17;;;;;;;15.48;12.13;;;11.80;99.90;;;;;;5006227;28;20037;-64
2022/03/28 12:23:44;;;;;;;16.48;10.77;;;11.70;99.90;;;;;;5005033;28;20046;-64
2022/03/28 12:26:09;;;;;;;14.70;11.32;;;11.80;99.90;;;;;;5003417;28;20216;-64
2022/03/28 12:28:39;;;;;;;12.45;10.60;;;12.20;99.90;;;;;;5001292;28;20695;-66
2022/03/28 12:31:08;;;;;;;12.32;10.18;;;12.20;99.90;;;;;;5005597;28;20121;-64
2022/03/28 12:33:39;;;;;;;14.52;10.57;;;12.30;99.90;;;;;;4986990;28;20593;-64
2022/03/28 12:36:06;;;;;;;12.07;10.38;;;12.10;99.90;;;;;;5001409;28;20029;-63
2022/03/28 12:38:38;;;;;;;12.23;10.38;;;12.20;99.90;;;;;;5005582;28;20042;-64
2022/03/28 12:41:11;;;;;;;17.63;12.35;;;12.30;99.90;;;;;;5002757;28;20398;-62
2022/03/28 12:43:38;;;;;;;12.10;10.88;;;12.50;99.90;;;;;;5004763;28;20052;-63
2022/03/28 12:46:10;;;;;;;12.38;11.07;;;12.50;99.90;;;;;;4988343;28;20049;-63
2022/03/28 12:48:46;;;;;;;13.10;10.65;;;12.40;99.90;;;;;;5004886;28;20117;-64
2022/03/28 12:51:20;;;;;;;15.20;11.88;;;12.50;99.90;;;;;;4999304;28;20053;-66